createdAt,value
2019-04-10T00:00:47.674Z,11.46
2019-04-10T00:03:25.716Z,11.41
2019-04-10T00:05:46.171Z,11.35
2019-04-10T00:08:14.481Z,11.35
2019-04-10T00:10:43.729Z,11.25
2019-04-10T00:13:12.190Z,11.19
2019-04-10T00:15:40.367Z,11.25
2019-04-10T00:18:09.457Z,11.18
2019-04-10T00:20:37.647Z,11.07
2019-04-10T00:23:06.792Z,11.04
2019-04-10T00:25:35.345Z,10.94
2019-04-10T00:28:03.578Z,11.04
2019-04-10T00:30:31.779Z,10.97
2019-04-10T00:33:00.564Z,10.93
2019-04-10T00:35:29.735Z,10.94
2019-04-10T00:37:58.121Z,10.89
2019-04-10T00:40:26.400Z,10.72
2019-04-10T00:42:56.983Z,10.82
2019-04-10T00:45:25.106Z,10.79
2019-04-10T00:47:53.462Z,10.75
2019-04-10T00:50:22.329Z,10.71
2019-04-10T00:52:50.624Z,10.66
2019-04-10T00:55:19.666Z,10.68
2019-04-10T00:57:47.992Z,10.69
2019-04-10T01:00:16.941Z,10.50
2019-04-10T01:02:45.185Z,10.41
2019-04-10T01:05:13.479Z,10.38
2019-04-10T01:07:44.191Z,10.35
2019-04-10T01:10:12.222Z,10.32
2019-04-10T01:12:40.547Z,10.37
2019-04-10T01:15:10.026Z,10.40
2019-04-10T01:17:38.312Z,10.25
2019-04-10T01:20:07.157Z,10.28
2019-04-10T01:22:35.582Z,10.27
2019-04-10T01:25:06.083Z,10.25
2019-04-10T01:27:34.331Z,10.19
2019-04-10T01:30:02.556Z,9.48
2019-04-10T01:32:30.759Z,10.09
2019-04-10T01:35:00.147Z,10.19
2019-04-10T01:37:29.051Z,10.23
2019-04-10T01:39:57.387Z,9.96
2019-04-10T01:42:25.593Z,10.02
2019-04-10T01:44:53.817Z,9.98
2019-04-10T01:47:22.070Z,9.94
2019-04-10T01:49:50.358Z,9.92
2019-04-10T01:52:18.568Z,9.90
2019-04-10T01:54:47.140Z,9.86
2019-04-10T01:57:16.423Z,9.72
2019-04-10T01:59:45.898Z,9.82
2019-04-10T02:02:16.867Z,9.77
2019-04-10T02:04:45.251Z,9.72
2019-04-10T02:07:13.901Z,9.81
2019-04-10T02:09:42.159Z,9.68
2019-04-10T02:12:10.421Z,9.63
2019-04-10T02:14:38.669Z,9.51
2019-04-10T02:17:06.826Z,9.57
2019-04-10T02:19:35.063Z,9.48
2019-04-10T02:22:04.337Z,9.31
2019-04-10T02:24:33.389Z,9.41
2019-04-10T02:27:02.406Z,9.41
2019-04-10T02:29:31.497Z,9.34
2019-04-10T02:31:59.912Z,9.41
2019-04-10T02:34:28.417Z,9.30
2019-04-10T02:36:58.484Z,9.31
2019-04-10T02:39:34.195Z,9.33
2019-04-10T02:41:58.253Z,9.23
2019-04-10T02:44:28.406Z,9.24
2019-04-10T02:46:59.092Z,9.18
2019-04-10T02:49:28.010Z,9.25
2019-04-10T02:51:57.031Z,9.11
2019-04-10T02:54:26.926Z,9.12
2019-04-10T02:56:56.769Z,9.04
2019-04-10T02:59:25.148Z,9.06
2019-04-10T03:01:53.508Z,9.03
2019-04-10T03:04:21.664Z,8.93
2019-04-10T03:06:51.394Z,8.92
2019-04-10T03:09:40.541Z,9.02
2019-04-10T03:11:49.923Z,8.93
2019-04-10T03:14:18.958Z,8.96
2019-04-10T03:16:47.929Z,8.91
2019-04-10T03:19:17.055Z,8.91
2019-04-10T03:21:45.292Z,8.71
2019-04-10T03:24:13.894Z,8.75
2019-04-10T03:26:42.126Z,8.66
2019-04-10T03:29:10.355Z,8.59
2019-04-10T03:31:40.844Z,8.60
2019-04-10T03:34:21.799Z,8.65
2019-04-10T03:36:48.894Z,8.65
2019-04-10T03:39:17.463Z,8.57
2019-04-10T03:41:45.713Z,8.59
2019-04-10T03:44:14.540Z,8.50
2019-04-10T03:46:43.032Z,8.49
2019-04-10T03:49:11.767Z,8.39
2019-04-10T03:51:40.840Z,8.26
2019-04-10T03:54:09.183Z,8.20
2019-04-10T03:56:38.150Z,8.29
2019-04-10T03:59:06.485Z,8.26
2019-04-10T04:01:35.362Z,8.24
2019-04-10T04:04:04.880Z,8.27
2019-04-10T04:06:33.396Z,8.26
2019-04-10T04:09:08.879Z,8.19
2019-04-10T04:11:31.640Z,8.21
2019-04-10T04:13:59.874Z,8.23
2019-04-10T04:16:28.040Z,8.20
2019-04-10T04:18:56.246Z,8.31
2019-04-10T04:21:24.465Z,8.11
2019-04-10T04:23:53.259Z,8.11
2019-04-10T04:26:21.500Z,7.94
2019-04-10T04:28:49.706Z,7.86
2019-04-10T04:31:18.150Z,7.94
2019-04-10T04:33:46.924Z,7.85
2019-04-10T04:36:16.003Z,7.79
2019-04-10T04:38:45.224Z,7.79
2019-04-10T04:41:13.538Z,7.74
2019-04-10T04:43:43.398Z,7.81
2019-04-10T04:46:12.060Z,7.82
2019-04-10T04:48:41.208Z,7.65
2019-04-10T04:51:09.500Z,7.72
2019-04-10T04:53:37.705Z,7.61
2019-04-10T04:56:05.929Z,7.41
2019-04-10T04:58:34.173Z,7.50
2019-04-10T05:01:02.361Z,7.48
2019-04-10T05:03:30.577Z,7.61
2019-04-10T05:05:58.799Z,7.48
2019-04-10T05:08:28.048Z,7.38
2019-04-10T05:10:56.313Z,7.47
2019-04-10T05:13:24.513Z,7.55
2019-04-10T05:15:53.369Z,7.50
2019-04-10T05:18:22.980Z,7.50
2019-04-10T05:20:52.406Z,7.51
2019-04-10T05:23:20.828Z,7.55
2019-04-10T05:25:49.795Z,7.55
2019-04-10T05:28:18.997Z,7.48
2019-04-10T05:30:47.652Z,7.49
2019-04-10T05:33:16.249Z,7.44
2019-04-10T05:35:44.449Z,7.43
2019-04-10T05:38:13.525Z,7.32
2019-04-10T05:40:42.227Z,7.23
2019-04-10T05:43:11.471Z,7.43
2019-04-10T05:45:40.125Z,7.50
2019-04-10T05:48:08.812Z,7.44
2019-04-10T05:50:37.816Z,7.48
2019-04-10T05:53:06.147Z,7.40
2019-04-10T05:55:34.355Z,7.29
2019-04-10T05:58:02.576Z,7.32
2019-04-10T06:00:30.791Z,7.25
2019-04-10T06:02:59.019Z,7.34
2019-04-10T06:05:27.224Z,7.24
2019-04-10T06:07:55.486Z,7.27
2019-04-10T06:10:24.654Z,7.35
2019-04-10T06:12:53.105Z,7.38
2019-04-10T06:15:21.322Z,7.38
2019-04-10T06:17:49.553Z,7.18
2019-04-10T06:20:17.756Z,7.27
2019-04-10T06:22:47.227Z,7.35
2019-04-10T06:25:16.378Z,7.38
2019-04-10T06:27:45.280Z,7.45
2019-04-10T06:30:13.492Z,7.52
2019-04-10T06:32:41.716Z,7.52
2019-04-10T06:35:11.023Z,7.39
2019-04-10T06:37:40.088Z,7.40
2019-04-10T06:40:17.066Z,7.40
2019-04-10T06:42:46.109Z,7.46
2019-04-10T06:45:09.291Z,7.30
2019-04-10T06:47:38.225Z,7.48
2019-04-10T06:50:07.030Z,7.55
2019-04-10T06:52:35.259Z,7.59
2019-04-10T06:55:05.034Z,7.85
2019-04-10T06:57:45.103Z,7.91
2019-04-10T07:00:06.767Z,7.81
2019-04-10T07:02:37.131Z,7.59
2019-04-10T07:05:17.475Z,7.51
2019-04-10T07:07:51.915Z,7.68
2019-04-10T07:10:26.084Z,7.93
2019-04-10T07:12:45.787Z,8.19
2019-04-10T07:15:18.511Z,7.96
2019-04-10T07:17:44.834Z,7.88
2019-04-10T07:20:15.473Z,7.76
2019-04-10T07:22:46.539Z,7.87
2019-04-10T07:25:14.384Z,8.00
2019-04-10T07:27:44.053Z,7.91
2019-04-10T07:30:12.347Z,7.92
2019-04-10T07:32:44.256Z,8.07
2019-04-10T07:35:12.757Z,8.19
2019-04-10T07:37:40.503Z,8.30
2019-04-10T07:40:08.894Z,8.56
2019-04-10T07:42:40.276Z,8.62
2019-04-10T07:45:07.047Z,8.59
2019-04-10T07:47:35.619Z,8.69
2019-04-10T07:50:08.591Z,8.69
2019-04-10T07:52:37.169Z,8.81
2019-04-10T07:55:06.608Z,8.79
2019-04-10T07:57:34.919Z,8.94
2019-04-10T08:00:03.262Z,8.95
2019-04-10T08:02:31.737Z,9.04
2019-04-10T08:05:00.185Z,9.10
2019-04-10T08:07:32.596Z,9.05
2019-04-10T08:09:59.290Z,9.06
2019-04-10T08:12:37.618Z,9.17
2019-04-10T08:14:57.540Z,9.24
2019-04-10T08:17:26.269Z,9.35
2019-04-10T08:19:54.508Z,9.39
2019-04-10T08:22:22.786Z,9.35
2019-04-10T08:24:51.246Z,9.17
2019-04-10T08:27:19.558Z,9.26
2019-04-10T08:29:48.481Z,9.44
2019-04-10T08:32:16.754Z,9.44
2019-04-10T08:34:45.008Z,9.67
2019-04-10T08:37:14.422Z,9.89
2019-04-10T08:39:45.967Z,9.91
2019-04-10T08:42:12.777Z,10.10
2019-04-10T08:44:41.008Z,10.15
2019-04-10T08:47:09.235Z,10.31
2019-04-10T08:49:37.448Z,10.25
2019-04-10T08:52:06.172Z,10.47
2019-04-10T08:54:34.576Z,10.62
2019-04-10T08:57:03.311Z,10.74
2019-04-10T08:59:31.923Z,10.78
2019-04-10T09:02:00.199Z,10.83
2019-04-10T09:04:28.761Z,10.70
2019-04-10T09:06:57.955Z,10.69
2019-04-10T09:09:27.866Z,10.93
2019-04-10T09:11:56.264Z,10.78
2019-04-10T09:14:25.230Z,11.04
2019-04-10T09:16:55.208Z,10.75
2019-04-10T09:19:23.484Z,10.89
2019-04-10T09:21:52.875Z,11.10
2019-04-10T09:24:21.680Z,11.33
2019-04-10T09:26:50.817Z,11.42
2019-04-10T09:29:21.774Z,11.50
2019-04-10T09:31:50.241Z,11.24
2019-04-10T09:34:18.578Z,11.05
2019-04-10T09:36:46.802Z,11.19
2019-04-10T09:39:15.081Z,11.50
2019-04-10T09:41:43.923Z,11.58
2019-04-10T09:44:12.398Z,11.72
2019-04-10T09:46:40.883Z,11.99
2019-04-10T09:49:09.176Z,12.11
2019-04-10T09:51:38.296Z,12.23
2019-04-10T09:54:07.785Z,11.81
2019-04-10T09:56:36.415Z,11.93
2019-04-10T09:59:05.378Z,11.92
2019-04-10T10:01:33.863Z,12.23
2019-04-10T10:04:02.007Z,12.46
2019-04-10T10:06:34.701Z,12.57
2019-04-10T10:09:00.537Z,12.77
2019-04-10T10:11:28.755Z,12.74
2019-04-10T10:13:56.964Z,12.38
2019-04-10T10:16:25.506Z,12.22
2019-04-10T10:18:54.070Z,12.62
2019-04-10T10:21:22.405Z,12.82
2019-04-10T10:23:50.625Z,13.05
2019-04-10T10:26:19.705Z,13.28
2019-04-10T10:28:48.171Z,13.40
2019-04-10T10:31:16.320Z,13.32
2019-04-10T10:33:44.536Z,13.35
2019-04-10T10:36:13.705Z,13.35
2019-04-10T10:38:41.979Z,13.20
2019-04-10T10:41:10.185Z,13.44
2019-04-10T10:43:38.433Z,13.69
2019-04-10T10:46:07.153Z,13.93
2019-04-10T10:48:35.809Z,14.37
2019-04-10T10:51:04.623Z,15.42
2019-04-10T10:53:32.950Z,16.37
2019-04-10T10:56:02.157Z,17.68
2019-04-10T10:58:30.469Z,17.93
2019-04-10T11:00:59.761Z,18.63
2019-04-10T11:03:28.146Z,18.39
2019-04-10T11:06:57.789Z,18.34
2019-04-10T11:08:33.867Z,18.60
2019-04-10T11:11:06.261Z,18.73
2019-04-10T11:13:34.785Z,19.11
2019-04-10T11:16:07.103Z,19.64
2019-04-10T11:18:35.246Z,20.04
2019-04-10T11:21:08.045Z,19.67
2019-04-10T11:23:33.841Z,20.40
2019-04-10T11:26:02.311Z,19.82
2019-04-10T11:28:32.254Z,20.31
2019-04-10T11:31:01.402Z,20.84
2019-04-10T11:33:30.747Z,19.87
2019-04-10T11:36:00.139Z,21.51
2019-04-10T11:38:29.075Z,20.63
2019-04-10T11:43:27.889Z,20.45
2019-04-10T11:45:59.287Z,19.50
2019-04-10T11:48:29.098Z,18.60
2019-04-10T11:51:00.684Z,17.85
2019-04-10T11:53:27.362Z,17.73
2019-04-10T11:55:57.033Z,18.30
2019-04-10T11:58:28.956Z,19.17
2019-04-10T12:00:58.080Z,20.47
2019-04-10T12:03:27.002Z,19.97
2019-04-10T12:05:57.208Z,20.13
2019-04-10T12:13:26.624Z,20.60
2019-04-10T12:15:54.877Z,20.58
2019-04-10T12:18:23.079Z,20.23
2019-04-10T12:20:51.581Z,20.17
2019-04-10T12:23:20.872Z,20.00
2019-04-10T12:25:49.430Z,20.48
2019-04-10T12:28:17.966Z,20.16
2019-04-10T12:30:46.250Z,19.94
2019-04-10T12:33:14.454Z,20.59
2019-04-10T12:35:42.761Z,20.91
2019-04-10T12:38:13.249Z,19.26
2019-04-10T12:40:40.918Z,19.75
2019-04-10T12:43:09.135Z,19.79
2019-04-10T12:45:38.158Z,19.34
2019-04-10T12:48:06.390Z,20.01
2019-04-10T12:50:34.647Z,19.60
2019-04-10T12:53:03.035Z,20.09
2019-04-10T12:55:32.322Z,20.37
2019-04-10T12:58:08.419Z,19.98
2019-04-10T13:00:31.641Z,20.18
2019-04-10T13:03:00.810Z,20.00
2019-04-10T13:05:29.345Z,20.42
2019-04-10T13:07:59.165Z,20.50
2019-04-10T13:10:27.566Z,20.41
2019-04-10T13:12:55.779Z,20.27
2019-04-10T13:15:23.995Z,19.53
2019-04-10T13:17:53.148Z,20.33
2019-04-10T13:20:21.904Z,20.14
2019-04-10T13:22:50.671Z,19.73
2019-04-10T13:25:19.007Z,20.05
2019-04-10T13:27:47.371Z,19.67
2019-04-10T13:30:16.556Z,20.21
2019-04-10T13:32:44.964Z,20.78
2019-04-10T13:35:14.407Z,20.65
2019-04-10T13:37:43.482Z,21.19
2019-04-10T13:40:13.087Z,20.63
2019-04-10T13:42:41.409Z,19.83
2019-04-10T13:45:09.621Z,20.06
2019-04-10T13:47:38.681Z,19.51
2019-04-10T13:50:08.496Z,19.43
2019-04-10T13:52:38.708Z,19.64
2019-04-10T13:55:10.227Z,19.84
2019-04-10T13:57:39.284Z,19.49
2019-04-10T14:00:09.377Z,20.43
2019-04-10T14:02:37.998Z,19.83
2019-04-10T14:05:11.609Z,20.00
2019-04-10T14:07:40.229Z,19.51
2019-04-10T14:10:08.588Z,19.66
2019-04-10T14:12:37.185Z,19.72
2019-04-10T14:15:05.574Z,20.15
2019-04-10T14:17:33.830Z,19.74
2019-04-10T14:20:02.880Z,19.76
2019-04-10T14:22:31.613Z,20.34
2019-04-10T14:25:00.937Z,20.52
2019-04-10T14:27:30.264Z,20.33
2019-04-10T14:29:58.764Z,20.33
2019-04-10T14:32:37.608Z,20.31
2019-04-10T14:35:08.645Z,20.35
2019-04-10T14:37:37.959Z,20.11
2019-04-10T14:40:08.403Z,20.23
2019-04-10T14:42:36.659Z,19.42
2019-04-10T14:45:06.740Z,20.07
2019-04-10T14:47:35.976Z,19.55
2019-04-10T14:50:05.291Z,19.61
2019-04-10T14:52:34.846Z,19.25
2019-04-10T14:55:04.567Z,19.00
2019-04-10T14:57:32.978Z,18.67
2019-04-10T15:00:01.205Z,19.08
2019-04-10T15:02:30.577Z,18.82
2019-04-10T15:04:59.545Z,19.31
2019-04-10T15:07:28.885Z,19.32
2019-04-10T15:09:57.197Z,19.27
2019-04-10T15:12:25.481Z,18.46
2019-04-10T15:14:58.270Z,18.92
2019-04-10T15:17:27.178Z,18.86
2019-04-10T15:19:56.521Z,17.81
2019-04-10T15:22:25.501Z,19.04
2019-04-10T15:24:53.969Z,19.45
2019-04-10T15:27:22.194Z,20.02
2019-04-10T15:29:50.582Z,20.38
2019-04-10T15:32:20.418Z,20.35
2019-04-10T15:34:48.676Z,19.98
2019-04-10T15:37:17.211Z,20.02
2019-04-10T15:39:47.179Z,19.62
2019-04-10T15:42:24.891Z,19.44
2019-04-10T15:44:57.091Z,19.32
2019-04-10T15:47:25.295Z,18.74
2019-04-10T15:49:53.606Z,18.92
2019-04-10T15:52:24.917Z,18.22
2019-04-10T15:54:55.458Z,17.42
2019-04-10T15:57:25.498Z,17.92
2019-04-10T15:59:54.623Z,18.36
2019-04-10T16:02:23.723Z,18.55
2019-04-10T16:04:57.181Z,17.93
2019-04-10T16:07:27.323Z,18.36
2019-04-10T16:09:57.974Z,18.30
2019-04-10T16:12:27.433Z,18.33
2019-04-10T16:14:56.972Z,17.99
2019-04-10T16:17:39.922Z,16.63
2019-04-10T16:20:22.100Z,17.45
2019-04-10T16:22:54.809Z,17.58
2019-04-10T16:25:25.579Z,17.56
2019-04-10T16:27:53.965Z,17.74
2019-04-10T16:30:26.249Z,17.49
2019-04-10T16:32:54.374Z,17.71
2019-04-10T16:35:32.482Z,17.66
2019-04-10T16:38:00.199Z,16.89
2019-04-10T16:40:29.836Z,15.35
2019-04-10T16:42:59.246Z,15.28
2019-04-10T16:45:28.643Z,15.74
2019-04-10T16:47:56.874Z,15.49
2019-04-10T16:50:25.842Z,15.35
2019-04-10T16:52:54.069Z,15.10
2019-04-10T16:55:22.784Z,13.98
2019-04-10T16:57:52.203Z,14.19
2019-04-10T17:00:22.249Z,14.56
2019-04-10T17:02:50.815Z,14.39
2019-04-10T17:05:19.029Z,14.12
2019-04-10T17:07:47.527Z,14.51
2019-04-10T17:10:22.346Z,14.61
2019-04-10T17:12:46.849Z,14.40
2019-04-10T17:15:15.722Z,13.95
2019-04-10T17:17:44.445Z,13.88
2019-04-10T17:20:14.014Z,14.32
2019-04-10T17:22:45.988Z,14.06
2019-04-10T17:25:14.347Z,13.52
2019-04-10T17:27:43.564Z,13.07
2019-04-10T17:30:15.706Z,13.29
2019-04-10T17:32:44.665Z,13.17
2019-04-10T17:35:13.688Z,12.99
2019-04-10T17:37:42.250Z,12.83
2019-04-10T17:40:25.448Z,12.72
2019-04-10T17:42:42.265Z,13.04
2019-04-10T17:45:10.470Z,12.75
2019-04-10T17:47:38.920Z,13.29
2019-04-10T17:50:08.778Z,13.19
2019-04-10T17:52:38.110Z,13.54
2019-04-10T17:55:07.407Z,13.40
2019-04-10T17:57:40.211Z,13.14
2019-04-10T18:00:11.077Z,12.39
2019-04-10T18:02:39.322Z,12.85
2019-04-10T18:05:08.513Z,12.83
2019-04-10T18:07:40.547Z,12.65
2019-04-10T18:10:09.004Z,12.70
2019-04-10T18:12:38.373Z,12.66
2019-04-10T18:15:06.640Z,12.70
2019-04-10T18:17:35.416Z,12.43
2019-04-10T18:20:04.890Z,12.07
2019-04-10T18:22:34.330Z,11.85
2019-04-10T18:25:05.450Z,11.65
2019-04-10T18:27:33.733Z,11.34
2019-04-10T18:30:01.962Z,11.64
2019-04-10T18:32:30.172Z,11.79
2019-04-10T18:34:58.392Z,11.64
2019-04-10T18:37:28.579Z,11.42
2019-04-10T18:39:57.033Z,11.16
2019-04-10T18:42:25.331Z,10.99
2019-04-10T18:44:53.558Z,10.97
2019-04-10T18:47:21.871Z,10.85
2019-04-10T18:49:53.982Z,10.71
2019-04-10T18:52:23.361Z,10.99
2019-04-10T18:54:52.019Z,11.09
2019-04-10T18:57:20.344Z,11.25
2019-04-10T19:00:02.082Z,10.97
2019-04-10T19:02:32.829Z,10.87
2019-04-10T19:05:05.697Z,10.61
2019-04-10T19:07:34.345Z,10.70
2019-04-10T19:10:04.309Z,10.71
2019-04-10T19:12:32.827Z,10.40
2019-04-10T19:15:01.069Z,10.26
2019-04-10T19:17:29.365Z,10.21
2019-04-10T19:19:57.579Z,10.36
2019-04-10T19:22:26.730Z,10.24
2019-04-10T19:24:54.928Z,10.14
2019-04-10T19:27:25.052Z,9.94
2019-04-10T19:29:53.048Z,9.88
2019-04-10T19:32:22.922Z,9.85
2019-04-10T19:34:51.803Z,9.90
2019-04-10T19:37:20.642Z,9.96
2019-04-10T19:39:48.850Z,9.80
2019-04-10T19:42:17.437Z,9.81
2019-04-10T19:44:45.677Z,9.96
2019-04-10T19:47:14.550Z,9.90
2019-04-10T19:49:42.895Z,9.88
2019-04-10T19:52:11.979Z,9.98
2019-04-10T19:54:40.882Z,9.70
2019-04-10T19:57:09.063Z,9.64
2019-04-10T19:59:37.287Z,9.60
2019-04-10T20:02:06.649Z,9.65
2019-04-10T20:04:34.958Z,9.47
2019-04-10T20:07:03.161Z,9.25
2019-04-10T20:09:32.569Z,9.14
2019-04-10T20:12:00.957Z,9.19
2019-04-10T20:14:29.150Z,9.26
2019-04-10T20:16:57.657Z,9.16
2019-04-10T20:19:26.637Z,9.30
2019-04-10T20:21:54.855Z,9.28
2019-04-10T20:24:23.060Z,9.24
2019-04-10T20:26:51.813Z,9.24
2019-04-10T20:29:21.154Z,9.20
2019-04-10T20:31:50.640Z,9.05
2019-04-10T20:34:19.133Z,9.02
2019-04-10T20:36:47.437Z,8.90
2019-04-10T20:39:16.876Z,8.80
2019-04-10T20:41:52.001Z,8.72
2019-04-10T20:44:15.166Z,8.57
2019-04-10T20:46:46.637Z,8.53
2019-04-10T20:49:14.771Z,8.52
2019-04-10T20:51:43.938Z,8.56
2019-04-10T20:54:12.771Z,8.61
2019-04-10T20:56:41.112Z,8.53
2019-04-10T20:59:09.962Z,8.60
2019-04-10T21:01:39.287Z,8.48
2019-04-10T21:04:07.577Z,8.22
2019-04-10T21:06:36.418Z,8.50
2019-04-10T21:09:07.501Z,8.49
2019-04-10T21:11:35.699Z,8.32
2019-04-10T21:14:05.230Z,8.34
2019-04-10T21:16:33.677Z,8.18
2019-04-10T21:19:02.372Z,8.07
2019-04-10T21:21:30.784Z,8.09
2019-04-10T21:23:58.949Z,8.16
2019-04-10T21:26:28.213Z,8.14
2019-04-10T21:28:56.760Z,7.95
2019-04-10T21:31:42.826Z,7.78
2019-04-10T21:34:21.865Z,7.91
2019-04-10T21:36:50.983Z,7.87
2019-04-10T21:39:22.887Z,7.73
2019-04-10T21:41:51.088Z,7.69
2019-04-10T21:44:20.391Z,7.71
2019-04-10T21:46:50.416Z,7.82
2019-04-10T21:49:19.639Z,7.67
2019-04-10T21:51:48.093Z,7.58
2019-04-10T21:54:16.371Z,7.50
2019-04-10T21:56:45.116Z,7.42
2019-04-10T21:59:16.021Z,7.37
2019-04-10T22:01:43.360Z,7.29
2019-04-10T22:04:11.642Z,7.25
2019-04-10T22:06:41.485Z,7.27
2019-04-10T22:09:28.594Z,7.34
2019-04-10T22:11:58.468Z,7.37
2019-04-10T22:14:26.636Z,7.37
2019-04-10T22:16:54.841Z,7.30
2019-04-10T22:19:24.446Z,7.29
2019-04-10T22:21:53.667Z,7.24
2019-04-10T22:24:21.954Z,7.15
2019-04-10T22:26:50.193Z,7.14
2019-04-10T22:29:19.503Z,7.15
2019-04-10T22:31:47.790Z,7.11
2019-04-10T22:34:17.071Z,7.18
2019-04-10T22:36:45.372Z,7.07
2019-04-10T22:39:15.226Z,7.15
2019-04-10T22:41:43.500Z,7.03
2019-04-10T22:44:11.830Z,6.91
2019-04-10T22:46:40.466Z,6.82
2019-04-10T22:49:08.685Z,6.70
2019-04-10T22:51:37.698Z,6.60
2019-04-10T22:54:06.119Z,6.64
2019-04-10T22:56:34.405Z,6.64
2019-04-10T22:59:03.855Z,6.59
2019-04-10T23:01:33.315Z,6.72
2019-04-10T23:04:01.774Z,6.65
2019-04-10T23:06:29.974Z,6.46
2019-04-10T23:08:58.171Z,6.41
2019-04-10T23:11:33.505Z,6.45
2019-04-10T23:13:56.420Z,6.37
2019-04-10T23:16:24.613Z,6.23
2019-04-10T23:18:53.864Z,6.31
2019-04-10T23:21:22.821Z,6.34
2019-04-10T23:23:51.632Z,6.38
2019-04-10T23:26:20.765Z,6.32
2019-04-10T23:28:49.792Z,6.21
2019-04-10T23:31:17.999Z,6.11
2019-04-10T23:33:46.208Z,6.03
2019-04-10T23:36:14.421Z,5.96
2019-04-10T23:38:43.709Z,5.92
2019-04-10T23:41:12.012Z,5.85
2019-04-10T23:43:40.203Z,5.85
2019-04-10T23:46:08.445Z,5.82
2019-04-10T23:48:37.107Z,5.83
2019-04-10T23:51:05.317Z,5.83
2019-04-10T23:53:33.531Z,5.73
2019-04-10T23:56:02.145Z,5.64
2019-04-10T23:58:30.430Z,5.60
